createdAt,value
2017-09-27T00:00:11.410Z,0
2017-09-27T00:01:11.508Z,0
2017-09-27T00:02:11.174Z,0
2017-09-27T00:03:10.525Z,0
2017-09-27T00:04:11.484Z,0
2017-09-27T00:05:10.813Z,0
2017-09-27T00:06:11.443Z,0
2017-09-27T00:07:11.750Z,0
2017-09-27T00:08:11.147Z,0
2017-09-27T00:09:11.093Z,0
2017-09-27T00:10:11.390Z,0
2017-09-27T00:11:11.692Z,0
2017-09-27T00:12:11.369Z,0
2017-09-27T00:13:11.033Z,0
2017-09-27T00:14:11.023Z,0
2017-09-27T00:15:11.323Z,0
2017-09-27T00:16:10.662Z,0
2017-09-27T00:17:10.650Z,0
2017-09-27T00:18:11.272Z,0
2017-09-27T00:19:10.629Z,0
2017-09-27T00:20:10.296Z,0
2017-09-27T00:21:10.914Z,0
2017-09-27T00:22:10.904Z,0
2017-09-27T00:23:10.886Z,0
2017-09-27T00:24:10.880Z,0
2017-09-27T00:25:10.866Z,0
2017-09-27T00:26:10.844Z,0
2017-09-27T00:27:10.518Z,0
2017-09-27T00:28:11.153Z,0
2017-09-27T00:29:10.487Z,0
2017-09-27T00:30:11.446Z,0
2017-09-27T00:31:11.102Z,0
2017-09-27T00:32:10.126Z,0
2017-09-27T00:33:10.761Z,0
2017-09-27T00:34:10.751Z,0
2017-09-27T00:35:11.052Z,0
2017-09-27T00:36:10.717Z,0
2017-09-27T00:37:11.062Z,0
2017-09-27T00:38:11.066Z,0
2017-09-27T00:39:10.991Z,0
2017-09-27T00:40:11.313Z,0
2017-09-27T00:41:10.007Z,0
2017-09-27T00:42:10.953Z,0
2017-09-27T00:43:11.266Z,0
2017-09-27T00:44:10.931Z,0
2017-09-27T00:45:10.595Z,0
2017-09-27T00:46:10.587Z,0
2017-09-27T00:47:10.886Z,0
2017-09-27T00:48:11.206Z,0
2017-09-27T00:49:10.859Z,0
2017-09-27T00:50:10.853Z,0
2017-09-27T00:51:10.187Z,0
2017-09-27T00:52:10.827Z,0
2017-09-27T00:53:10.808Z,0
2017-09-27T00:54:11.147Z,0
2017-09-27T00:55:10.148Z,0
2017-09-27T00:56:10.447Z,0
2017-09-27T00:57:09.787Z,0
2017-09-27T00:58:11.066Z,0
2017-09-27T00:59:10.733Z,0
2017-09-27T01:00:10.397Z,0
2017-09-27T01:01:10.382Z,0
2017-09-27T01:02:11.004Z,0
2017-09-27T01:03:10.678Z,0
2017-09-27T01:04:10.344Z,0
2017-09-27T01:05:10.653Z,0
2017-09-27T01:06:10.309Z,0
2017-09-27T01:07:10.327Z,0
2017-09-27T01:08:10.618Z,0
2017-09-27T01:09:09.946Z,0
2017-09-27T01:10:09.938Z,0
2017-09-27T01:11:09.924Z,0
2017-09-27T01:12:10.872Z,0
2017-09-27T01:13:10.220Z,0
2017-09-27T01:14:10.203Z,0
2017-09-27T01:15:09.879Z,0
2017-09-27T01:16:09.534Z,0
2017-09-27T01:17:09.839Z,0
2017-09-27T01:18:10.475Z,0
2017-09-27T01:19:10.449Z,0
2017-09-27T01:20:10.440Z,0
2017-09-27T01:21:10.439Z,0
2017-09-27T01:22:10.110Z,0
2017-09-27T01:23:09.441Z,0
2017-09-27T01:24:10.066Z,0
2017-09-27T01:25:10.692Z,0
2017-09-27T01:26:10.692Z,0
2017-09-27T01:27:10.029Z,0
2017-09-27T01:28:10.656Z,0
2017-09-27T01:29:09.676Z,0
2017-09-27T01:30:09.986Z,0
2017-09-27T01:31:10.301Z,0
2017-09-27T01:32:10.620Z,0
2017-09-27T01:33:10.269Z,0
2017-09-27T01:34:09.938Z,0
2017-09-27T01:35:10.560Z,0
2017-09-27T01:36:09.908Z,0
2017-09-27T01:37:09.888Z,0
2017-09-27T01:38:09.880Z,0
2017-09-27T01:39:09.914Z,0
2017-09-27T01:40:09.850Z,0
2017-09-27T01:41:09.846Z,0
2017-09-27T01:42:10.142Z,0
2017-09-27T01:43:10.132Z,0
2017-09-27T01:44:10.121Z,0
2017-09-27T01:45:09.789Z,0
2017-09-27T01:46:09.764Z,0
2017-09-27T01:47:10.073Z,0
2017-09-27T01:48:09.104Z,0
2017-09-27T01:49:09.404Z,0
2017-09-27T01:50:09.722Z,0
2017-09-27T01:51:09.382Z,0
2017-09-27T01:52:09.373Z,0
2017-09-27T01:53:10.321Z,0
2017-09-27T01:54:09.669Z,0
2017-09-27T01:55:09.653Z,0
2017-09-27T01:56:09.006Z,0
2017-09-27T01:57:09.304Z,0
2017-09-27T01:58:09.621Z,0
2017-09-27T01:59:09.973Z,0
2017-09-27T02:00:09.793Z,0
2017-09-27T02:01:09.901Z,0
2017-09-27T02:02:10.205Z,0
2017-09-27T02:03:09.545Z,0
2017-09-27T02:04:09.531Z,0
2017-09-27T02:05:10.158Z,0
2017-09-27T02:06:09.183Z,0
2017-09-27T02:07:09.167Z,0
2017-09-27T02:08:09.795Z,0
2017-09-27T02:09:09.461Z,0
2017-09-27T02:10:09.448Z,0
2017-09-27T02:11:09.434Z,0
2017-09-27T02:12:09.423Z,0
2017-09-27T02:13:10.050Z,0
2017-09-27T02:14:09.390Z,0
2017-09-27T02:15:09.712Z,0
2017-09-27T02:16:09.708Z,0
2017-09-27T02:17:09.677Z,0
2017-09-27T02:18:09.015Z,0
2017-09-27T02:19:09.327Z,0
2017-09-27T02:20:09.633Z,0
2017-09-27T02:21:09.627Z,0
2017-09-27T02:22:09.291Z,0
2017-09-27T02:23:08.953Z,0
2017-09-27T02:24:09.276Z,0
2017-09-27T02:25:08.924Z,0
2017-09-27T02:26:09.577Z,0
2017-09-27T02:27:09.231Z,0
2017-09-27T02:28:09.861Z,0
2017-09-27T02:29:08.873Z,0
2017-09-27T02:30:09.840Z,0
2017-09-27T02:31:09.174Z,0
2017-09-27T02:32:08.835Z,0
2017-09-27T02:33:09.139Z,0
2017-09-27T02:34:08.805Z,0
2017-09-27T02:35:09.446Z,0
2017-09-27T02:36:08.778Z,0
2017-09-27T02:37:09.411Z,0
2017-09-27T02:38:09.399Z,0
2017-09-27T02:39:09.063Z,0
2017-09-27T02:40:09.366Z,0
2017-09-27T02:41:08.712Z,0
2017-09-27T02:42:09.019Z,0
2017-09-27T02:43:08.680Z,0
2017-09-27T02:44:09.638Z,0
2017-09-27T02:45:09.639Z,0
2017-09-27T02:46:08.967Z,0
2017-09-27T02:47:09.277Z,0
2017-09-27T02:48:08.941Z,0
2017-09-27T02:49:08.606Z,0
2017-09-27T02:50:08.920Z,0
2017-09-27T02:51:08.586Z,0
2017-09-27T02:52:09.207Z,0
2017-09-27T02:53:08.556Z,0
2017-09-27T02:54:08.862Z,0
2017-09-27T02:55:08.848Z,0
2017-09-27T02:56:09.474Z,0
2017-09-27T02:57:08.821Z,0
2017-09-27T02:58:08.486Z,0
2017-09-27T02:59:08.480Z,0
2017-09-27T03:00:08.776Z,0
2017-09-27T03:01:08.122Z,0
2017-09-27T03:02:09.074Z,0
2017-09-27T03:03:08.739Z,0
2017-09-27T03:04:08.739Z,0
2017-09-27T03:05:09.368Z,0
2017-09-27T03:06:08.743Z,0
2017-09-27T03:07:09.324Z,0
2017-09-27T03:08:08.675Z,0
2017-09-27T03:09:08.660Z,0
2017-09-27T03:10:08.658Z,0
2017-09-27T03:11:08.317Z,0
2017-09-27T03:12:08.624Z,0
2017-09-27T03:13:08.286Z,0
2017-09-27T03:14:08.911Z,0
2017-09-27T03:15:08.915Z,0
2017-09-27T03:16:08.887Z,0
2017-09-27T03:17:08.545Z,0
2017-09-27T03:18:08.538Z,0
2017-09-27T03:19:08.840Z,0
2017-09-27T03:20:08.828Z,0
2017-09-27T03:21:08.502Z,0
2017-09-27T03:22:08.153Z,0
2017-09-27T03:23:08.792Z,0
2017-09-27T03:24:08.465Z,0
2017-09-27T03:25:08.472Z,0
2017-09-27T03:26:09.072Z,0
2017-09-27T03:27:08.409Z,0
2017-09-27T03:28:08.399Z,0
2017-09-27T03:29:08.719Z,0
2017-09-27T03:30:08.762Z,0
2017-09-27T03:31:08.701Z,0
2017-09-27T03:32:08.994Z,0
2017-09-27T03:33:08.330Z,0
2017-09-27T03:34:08.327Z,0
2017-09-27T03:35:08.949Z,0
2017-09-27T03:36:07.971Z,0
2017-09-27T03:37:08.601Z,0
2017-09-27T03:38:08.276Z,0
2017-09-27T03:39:08.891Z,0
2017-09-27T03:40:08.556Z,0
2017-09-27T03:41:08.231Z,0
2017-09-27T03:42:08.854Z,0
2017-09-27T03:43:08.530Z,0
2017-09-27T03:44:08.506Z,0
2017-09-27T03:45:08.503Z,0
2017-09-27T03:46:08.473Z,0
2017-09-27T03:47:08.164Z,0
2017-09-27T03:48:08.125Z,0
2017-09-27T03:49:08.123Z,0
2017-09-27T03:50:08.096Z,0
2017-09-27T03:51:08.460Z,0
2017-09-27T03:52:08.716Z,0
2017-09-27T03:53:08.385Z,0
2017-09-27T03:54:08.044Z,0
2017-09-27T03:55:07.707Z,0
2017-09-27T03:56:08.014Z,0
2017-09-27T03:57:08.002Z,0
2017-09-27T03:58:07.672Z,0
2017-09-27T03:59:08.304Z,0
2017-09-27T04:00:08.196Z,0
2017-09-27T04:01:08.590Z,0
2017-09-27T04:02:08.574Z,0
2017-09-27T04:03:07.929Z,0
2017-09-27T04:04:07.907Z,0
2017-09-27T04:05:07.906Z,0
2017-09-27T04:06:08.205Z,0
2017-09-27T04:07:08.193Z,0
2017-09-27T04:08:07.856Z,0
2017-09-27T04:09:08.159Z,0
2017-09-27T04:10:08.156Z,0
2017-09-27T04:11:07.488Z,0
2017-09-27T04:12:07.810Z,0
2017-09-27T04:13:07.781Z,0
2017-09-27T04:14:07.769Z,0
2017-09-27T04:15:08.070Z,0
2017-09-27T04:16:08.061Z,0
2017-09-27T04:17:07.406Z,0
2017-09-27T04:18:07.707Z,0
2017-09-27T04:19:07.384Z,0
2017-09-27T04:20:07.363Z,0
2017-09-27T04:21:07.667Z,0
2017-09-27T04:22:07.981Z,0
2017-09-27T04:23:07.323Z,0
2017-09-27T04:24:07.629Z,0
2017-09-27T04:25:07.296Z,0
2017-09-27T04:26:06.962Z,0
2017-09-27T04:27:07.266Z,0
2017-09-27T04:28:07.254Z,0
2017-09-27T04:29:07.243Z,0
2017-09-27T04:30:07.548Z,0
2017-09-27T04:31:07.220Z,0
2017-09-27T04:32:07.199Z,0
2017-09-27T04:33:07.184Z,0
2017-09-27T04:34:07.496Z,0
2017-09-27T04:35:07.802Z,0
2017-09-27T04:36:07.786Z,0
2017-09-27T04:37:07.771Z,0
2017-09-27T04:38:07.756Z,0
2017-09-27T04:39:07.101Z,0
2017-09-27T04:40:07.411Z,0
2017-09-27T04:41:08.039Z,0
2017-09-27T04:42:07.378Z,0
2017-09-27T04:43:07.684Z,0
2017-09-27T04:44:07.675Z,0
2017-09-27T04:45:07.021Z,0
2017-09-27T04:46:07.651Z,0
2017-09-27T04:47:06.994Z,0
2017-09-27T04:48:07.306Z,0
2017-09-27T04:49:07.937Z,0
2017-09-27T04:50:07.911Z,0
2017-09-27T04:51:07.577Z,0
2017-09-27T04:52:06.920Z,0
2017-09-27T04:53:07.548Z,0
2017-09-27T04:54:07.539Z,0
2017-09-27T04:55:07.201Z,0
2017-09-27T04:56:07.836Z,0
2017-09-27T04:57:07.496Z,0
2017-09-27T04:58:07.169Z,0
2017-09-27T04:59:07.149Z,0
2017-09-27T05:00:07.462Z,0
2017-09-27T05:01:07.166Z,0
2017-09-27T05:02:07.435Z,0
2017-09-27T05:03:07.094Z,0
2017-09-27T05:04:07.735Z,0
2017-09-27T05:05:07.067Z,0
2017-09-27T05:06:07.691Z,0
2017-09-27T05:07:06.721Z,0
2017-09-27T05:08:07.339Z,0
2017-09-27T05:09:07.333Z,0
2017-09-27T05:10:07.658Z,0
2017-09-27T05:11:07.348Z,0
2017-09-27T05:12:07.308Z,0
2017-09-27T05:13:06.961Z,0
2017-09-27T05:14:07.596Z,0
2017-09-27T05:15:06.602Z,0
2017-09-27T05:16:06.920Z,0
2017-09-27T05:17:06.594Z,0
2017-09-27T05:18:07.215Z,0
2017-09-27T05:19:07.520Z,0
2017-09-27T05:20:07.189Z,0
2017-09-27T05:21:06.863Z,0
2017-09-27T05:22:06.188Z,0
2017-09-27T05:23:06.501Z,0
2017-09-27T05:24:06.801Z,0
2017-09-27T05:25:07.438Z,0
2017-09-27T05:26:06.771Z,0
2017-09-27T05:27:06.123Z,0
2017-09-27T05:28:07.075Z,5
2017-09-27T05:29:06.089Z,5
2017-09-27T05:30:06.715Z,5
2017-09-27T05:31:07.030Z,5
2017-09-27T05:32:06.688Z,5
2017-09-27T05:33:06.357Z,5
2017-09-27T05:34:07.324Z,5
2017-09-27T05:35:06.978Z,5
2017-09-27T05:36:06.322Z,5
2017-09-27T05:37:06.940Z,10
2017-09-27T05:38:06.609Z,10
2017-09-27T05:39:06.602Z,10
2017-09-27T05:40:06.591Z,10
2017-09-27T05:41:07.212Z,10
2017-09-27T05:42:06.574Z,10
2017-09-27T05:43:07.183Z,10
2017-09-27T05:44:06.854Z,15
2017-09-27T05:45:06.185Z,15
2017-09-27T05:46:07.146Z,15
2017-09-27T05:47:06.474Z,15
2017-09-27T05:48:06.796Z,15
2017-09-27T05:49:07.131Z,15
2017-09-27T05:50:06.767Z,20
2017-09-27T05:51:06.108Z,20
2017-09-27T05:52:06.086Z,20
2017-09-27T05:53:07.038Z,20
2017-09-27T05:54:06.078Z,20
2017-09-27T05:55:07.022Z,20
2017-09-27T05:56:06.688Z,25
2017-09-27T05:57:06.662Z,25
2017-09-27T05:58:06.013Z,25
2017-09-27T05:59:06.959Z,25
2017-09-27T06:00:06.917Z,25
2017-09-27T06:01:06.615Z,25
2017-09-27T06:02:06.594Z,25
2017-09-27T06:03:06.903Z,25
2017-09-27T06:04:05.928Z,25
2017-09-27T06:05:06.570Z,25
2017-09-27T06:06:06.221Z,25
2017-09-27T06:07:06.526Z,30
2017-09-27T06:08:05.867Z,25
2017-09-27T06:09:06.492Z,30
2017-09-27T06:10:05.839Z,30
2017-09-27T06:11:05.833Z,30
2017-09-27T06:12:06.458Z,30
2017-09-27T06:13:06.445Z,30
2017-09-27T06:14:06.113Z,30
2017-09-27T06:15:06.743Z,30
2017-09-27T06:16:06.722Z,30
2017-09-27T06:17:06.387Z,30
2017-09-27T06:18:06.372Z,30
2017-09-27T06:19:06.040Z,30
2017-09-27T06:20:06.022Z,30
2017-09-27T06:21:06.010Z,30
2017-09-27T06:22:06.639Z,35
2017-09-27T06:23:05.979Z,35
2017-09-27T06:24:05.649Z,35
2017-09-27T06:25:06.288Z,35
2017-09-27T06:26:06.277Z,35
2017-09-27T06:27:05.935Z,35
2017-09-27T06:28:05.913Z,35
2017-09-27T06:29:06.225Z,35
2017-09-27T06:30:06.225Z,40
2017-09-27T06:31:05.555Z,40
2017-09-27T06:32:05.543Z,40
2017-09-27T06:33:05.853Z,45
2017-09-27T06:34:06.184Z,45
2017-09-27T06:35:05.814Z,40
2017-09-27T06:36:05.803Z,45
2017-09-27T06:37:05.477Z,45
2017-09-27T06:38:05.785Z,45
2017-09-27T06:39:06.403Z,45
2017-09-27T06:40:05.754Z,50
2017-09-27T06:41:06.376Z,50
2017-09-27T06:42:05.751Z,50
2017-09-27T06:43:05.071Z,55
2017-09-27T06:44:06.028Z,55
2017-09-27T06:45:06.367Z,55
2017-09-27T06:46:05.679Z,55
2017-09-27T06:47:05.661Z,55
2017-09-27T06:48:06.295Z,55
2017-09-27T06:49:05.639Z,55
2017-09-27T06:50:05.625Z,55
2017-09-27T06:51:05.937Z,60
2017-09-27T06:52:05.597Z,60
2017-09-27T06:53:05.580Z,60
2017-09-27T06:54:05.883Z,60
2017-09-27T06:55:05.238Z,65
2017-09-27T06:56:05.537Z,65
2017-09-27T06:57:05.841Z,65
2017-09-27T06:58:05.515Z,65
2017-09-27T06:59:05.502Z,70
2017-09-27T07:00:06.133Z,70
2017-09-27T07:01:05.479Z,75
2017-09-27T07:02:05.135Z,80
2017-09-27T07:03:05.766Z,85
2017-09-27T07:04:05.763Z,90
2017-09-27T07:05:05.750Z,90
2017-09-27T07:06:05.731Z,90
2017-09-27T07:07:06.033Z,95
2017-09-27T07:08:04.754Z,95
2017-09-27T07:09:05.689Z,100
2017-09-27T07:10:06.006Z,100
2017-09-27T07:11:05.039Z,105
2017-09-27T07:12:05.659Z,110
2017-09-27T07:13:05.647Z,110
2017-09-27T07:14:05.305Z,115
2017-09-27T07:15:05.936Z,120
2017-09-27T07:16:05.274Z,125
2017-09-27T07:17:04.941Z,135
2017-09-27T07:18:05.575Z,140
2017-09-27T07:19:05.897Z,145
2017-09-27T07:20:05.553Z,150
2017-09-27T07:21:04.894Z,150
2017-09-27T07:22:05.524Z,155
2017-09-27T07:23:05.225Z,155
2017-09-27T07:24:05.504Z,160
2017-09-27T07:25:05.488Z,160
2017-09-27T07:26:05.167Z,160
2017-09-27T07:27:05.788Z,160
2017-09-27T07:28:05.447Z,160
2017-09-27T07:29:05.113Z,160
2017-09-27T07:30:05.112Z,160
2017-09-27T07:31:05.428Z,155
2017-09-27T07:32:05.407Z,150
2017-09-27T07:33:05.074Z,150
2017-09-27T07:34:05.057Z,150
2017-09-27T07:35:05.055Z,155
2017-09-27T07:36:05.029Z,150
2017-09-27T07:37:05.015Z,150
2017-09-27T07:38:05.006Z,150
2017-09-27T07:39:04.672Z,150
2017-09-27T07:40:05.308Z,150
2017-09-27T07:41:04.978Z,145
2017-09-27T07:42:05.290Z,145
2017-09-27T07:43:04.320Z,140
2017-09-27T07:44:04.614Z,140
2017-09-27T07:45:04.922Z,140
2017-09-27T07:46:04.591Z,135
2017-09-27T07:47:05.234Z,130
2017-09-27T07:48:04.900Z,125
2017-09-27T07:49:04.886Z,125
2017-09-27T07:50:04.234Z,125
2017-09-27T07:51:04.535Z,125
2017-09-27T07:52:05.169Z,125
2017-09-27T07:53:05.164Z,125
2017-09-27T07:54:04.820Z,125
2017-09-27T07:55:04.176Z,130
2017-09-27T07:56:05.125Z,130
2017-09-27T07:57:05.433Z,130
2017-09-27T07:58:04.789Z,130
2017-09-27T07:59:05.087Z,130
2017-09-27T08:00:04.433Z,130
2017-09-27T08:01:04.426Z,125
2017-09-27T08:02:04.734Z,125
2017-09-27T08:03:04.717Z,125
2017-09-27T08:04:04.717Z,130
2017-09-27T08:05:04.381Z,115
2017-09-27T08:06:04.379Z,110
2017-09-27T08:07:04.353Z,105
2017-09-27T08:08:05.319Z,105
2017-09-27T08:09:05.300Z,105
2017-09-27T08:10:04.640Z,105
2017-09-27T08:11:05.268Z,105
2017-09-27T08:12:04.941Z,105
2017-09-27T08:13:04.284Z,105
2017-09-27T08:14:04.602Z,105
2017-09-27T08:15:04.915Z,110
2017-09-27T08:16:04.573Z,115
2017-09-27T08:17:04.890Z,120
2017-09-27T08:18:04.554Z,120
2017-09-27T08:19:04.871Z,125
2017-09-27T08:20:04.539Z,130
2017-09-27T08:21:04.202Z,130
2017-09-27T08:22:04.507Z,135
2017-09-27T08:23:04.193Z,135
2017-09-27T08:24:04.485Z,135
2017-09-27T08:25:04.477Z,140
2017-09-27T08:26:03.819Z,150
2017-09-27T08:27:04.449Z,160
2017-09-27T08:28:05.136Z,165
2017-09-27T08:29:04.426Z,175
2017-09-27T08:30:04.101Z,175
2017-09-27T08:31:04.409Z,175
2017-09-27T08:32:04.716Z,180
2017-09-27T08:33:04.384Z,180
2017-09-27T08:34:04.056Z,190
2017-09-27T08:35:04.360Z,195
2017-09-27T08:36:04.026Z,190
2017-09-27T08:37:03.697Z,190
2017-09-27T08:38:04.650Z,175
2017-09-27T08:39:04.373Z,170
2017-09-27T08:40:04.309Z,165
2017-09-27T08:41:04.949Z,160
2017-09-27T08:42:04.309Z,160
2017-09-27T08:43:03.964Z,160
2017-09-27T08:44:03.626Z,160
2017-09-27T08:45:03.944Z,160
2017-09-27T08:46:04.907Z,155
2017-09-27T08:47:03.587Z,155
2017-09-27T08:48:04.217Z,160
2017-09-27T08:49:04.206Z,160
2017-09-27T08:50:04.516Z,160
2017-09-27T08:51:04.201Z,160
2017-09-27T08:52:04.814Z,160
2017-09-27T08:53:04.481Z,160
2017-09-27T08:54:04.156Z,165
2017-09-27T08:55:04.466Z,165
2017-09-27T08:56:03.490Z,165
2017-09-27T08:57:04.436Z,165
2017-09-27T08:58:03.470Z,165
2017-09-27T08:59:04.741Z,170
2017-09-27T09:00:04.088Z,170
2017-09-27T09:01:04.076Z,175
2017-09-27T09:02:04.391Z,175
2017-09-27T09:03:03.732Z,170
2017-09-27T09:04:04.044Z,175
2017-09-27T09:05:04.361Z,175
2017-09-27T09:06:04.334Z,175
2017-09-27T09:07:04.021Z,175
2017-09-27T09:08:04.008Z,175
2017-09-27T09:09:03.998Z,175
2017-09-27T09:10:03.972Z,175
2017-09-27T09:11:04.613Z,175
2017-09-27T09:12:03.953Z,180
2017-09-27T09:13:04.262Z,180
2017-09-27T09:14:04.581Z,180
2017-09-27T09:15:03.931Z,180
2017-09-27T09:16:03.915Z,180
2017-09-27T09:17:04.544Z,185
2017-09-27T09:18:03.574Z,180
2017-09-27T09:19:04.210Z,185
2017-09-27T09:20:03.869Z,185
2017-09-27T09:21:04.182Z,185
2017-09-27T09:22:04.171Z,185
2017-09-27T09:23:04.155Z,190
2017-09-27T09:24:03.841Z,190
2017-09-27T09:25:04.143Z,190
2017-09-27T09:26:04.129Z,190
2017-09-27T09:27:03.800Z,195
2017-09-27T09:28:03.792Z,195
2017-09-27T09:29:03.787Z,200
2017-09-27T09:30:04.409Z,200
2017-09-27T09:31:04.083Z,200
2017-09-27T09:32:04.075Z,200
2017-09-27T09:33:04.386Z,200
2017-09-27T09:34:04.047Z,200
2017-09-27T09:35:04.365Z,200
2017-09-27T09:36:03.706Z,200
2017-09-27T09:37:03.374Z,215
2017-09-27T09:38:04.012Z,210
2017-09-27T09:39:04.374Z,205
2017-09-27T09:40:03.683Z,215
2017-09-27T09:41:04.301Z,210
2017-09-27T09:42:03.324Z,210
2017-09-27T09:43:03.637Z,210
2017-09-27T09:44:03.956Z,205
2017-09-27T09:45:03.626Z,205
2017-09-27T09:46:03.934Z,205
2017-09-27T09:47:03.920Z,210
2017-09-27T09:48:03.911Z,215
2017-09-27T09:49:02.937Z,210
2017-09-27T09:50:03.571Z,210
2017-09-27T09:51:03.242Z,215
2017-09-27T09:52:03.548Z,215
2017-09-27T09:53:04.176Z,220
2017-09-27T09:54:03.211Z,225
2017-09-27T09:55:03.523Z,220
2017-09-27T09:56:03.839Z,220
2017-09-27T09:57:02.851Z,225
2017-09-27T09:58:03.808Z,225
2017-09-27T09:59:03.803Z,220
2017-09-27T10:00:03.157Z,245
2017-09-27T10:01:03.983Z,245
2017-09-27T10:02:03.772Z,230
2017-09-27T10:03:03.120Z,225
2017-09-27T10:04:03.124Z,220
2017-09-27T10:05:03.100Z,225
2017-09-27T10:06:03.411Z,230
2017-09-27T10:07:03.722Z,230
2017-09-27T10:08:03.727Z,235
2017-09-27T10:09:03.738Z,250
2017-09-27T10:10:03.703Z,230
2017-09-27T10:11:03.708Z,235
2017-09-27T10:12:03.676Z,235
2017-09-27T10:13:03.994Z,235
2017-09-27T10:14:03.336Z,240
2017-09-27T10:15:03.660Z,245
2017-09-27T10:16:03.641Z,235
2017-09-27T10:17:02.668Z,240
2017-09-27T10:18:03.628Z,240
2017-09-27T10:19:02.978Z,245
2017-09-27T10:20:03.284Z,240
2017-09-27T10:21:03.601Z,240
2017-09-27T10:22:03.590Z,240
2017-09-27T10:23:03.578Z,240
2017-09-27T10:24:02.920Z,240
2017-09-27T10:25:03.608Z,245
2017-09-27T10:26:03.551Z,245
2017-09-27T10:27:03.546Z,245
2017-09-27T10:28:03.870Z,245
2017-09-27T10:29:02.885Z,250
2017-09-27T10:30:03.204Z,250
2017-09-27T10:31:03.517Z,255
2017-09-27T10:32:03.824Z,255
2017-09-27T10:33:03.174Z,260
2017-09-27T10:34:03.158Z,265
2017-09-27T10:35:02.837Z,270
2017-09-27T10:36:03.476Z,270
2017-09-27T10:37:03.137Z,280
2017-09-27T10:38:02.817Z,290
2017-09-27T10:39:02.789Z,305
2017-09-27T10:40:03.428Z,300
2017-09-27T10:41:03.124Z,305
2017-09-27T10:42:03.090Z,310
2017-09-27T10:43:03.081Z,290
2017-09-27T10:44:03.074Z,280
2017-09-27T10:45:02.743Z,285
2017-09-27T10:46:03.055Z,290
2017-09-27T10:47:03.369Z,310
2017-09-27T10:48:03.044Z,385
2017-09-27T10:49:03.365Z,400
2017-09-27T10:50:03.029Z,350
2017-09-27T10:51:03.340Z,365
2017-09-27T10:52:03.333Z,295
2017-09-27T10:53:03.012Z,295
2017-09-27T10:54:03.328Z,305
2017-09-27T10:55:02.986Z,300
2017-09-27T10:56:03.302Z,300
2017-09-27T10:57:03.296Z,315
2017-09-27T10:58:03.611Z,325
2017-09-27T10:59:03.274Z,360
2017-09-27T11:00:02.969Z,350
2017-09-27T11:01:02.969Z,300
2017-09-27T11:02:03.277Z,305
2017-09-27T11:03:03.273Z,305
2017-09-27T11:04:03.607Z,310
2017-09-27T11:05:03.240Z,310
2017-09-27T11:06:03.250Z,315
2017-09-27T11:07:02.923Z,340
2017-09-27T11:08:03.252Z,330
2017-09-27T11:09:02.893Z,310
2017-09-27T11:10:03.205Z,340
2017-09-27T11:11:03.216Z,330
2017-09-27T11:12:03.524Z,335
2017-09-27T11:13:03.207Z,355
2017-09-27T11:14:03.489Z,330
2017-09-27T11:15:02.521Z,325
2017-09-27T11:16:02.832Z,330
2017-09-27T11:17:02.829Z,395
2017-09-27T11:18:02.821Z,495
2017-09-27T11:19:02.821Z,540
2017-09-27T11:20:03.466Z,450
2017-09-27T11:21:02.480Z,470
2017-09-27T11:22:02.473Z,570
2017-09-27T11:23:03.113Z,585
2017-09-27T11:24:02.778Z,555
2017-09-27T11:25:02.819Z,680
2017-09-27T11:26:03.102Z,415
2017-09-27T11:27:02.766Z,360
2017-09-27T11:28:02.432Z,395
2017-09-27T11:29:03.391Z,405
2017-09-27T11:30:03.384Z,380
2017-09-27T11:31:03.057Z,385
2017-09-27T11:32:02.732Z,415
2017-09-27T11:33:03.056Z,430
2017-09-27T11:34:02.080Z,445
2017-09-27T11:35:03.040Z,525
2017-09-27T11:36:02.711Z,455
2017-09-27T11:37:02.707Z,405
2017-09-27T11:38:02.705Z,395
2017-09-27T11:39:03.033Z,420
2017-09-27T11:40:03.032Z,450
2017-09-27T11:41:02.696Z,535
2017-09-27T11:42:03.333Z,565
2017-09-27T11:43:02.683Z,695
2017-09-27T11:44:03.023Z,955
2017-09-27T11:45:02.348Z,1125
2017-09-27T11:46:02.342Z,1125
2017-09-27T11:47:02.981Z,1110
2017-09-27T11:48:03.305Z,1120
2017-09-27T11:49:02.652Z,1125
2017-09-27T11:50:02.659Z,1145
2017-09-27T11:51:03.300Z,1130
2017-09-27T11:52:02.324Z,1115
2017-09-27T11:53:02.647Z,1090
2017-09-27T11:54:02.641Z,1100
2017-09-27T11:55:02.961Z,1100
2017-09-27T11:56:03.302Z,1100
2017-09-27T11:57:03.425Z,1075
2017-09-27T11:58:02.639Z,1055
2017-09-27T11:59:02.961Z,1040
2017-09-27T12:00:02.642Z,1030
2017-09-27T12:01:03.484Z,1055
2017-09-27T12:02:02.641Z,1065
2017-09-27T12:03:02.329Z,1090
2017-09-27T12:04:02.636Z,1045
2017-09-27T12:05:03.290Z,1095
2017-09-27T12:06:02.647Z,1095
2017-09-27T12:07:02.322Z,1095
2017-09-27T12:08:02.645Z,1130
2017-09-27T12:09:02.969Z,1110
2017-09-27T12:10:02.329Z,1110
2017-09-27T12:11:02.709Z,1105
2017-09-27T12:12:03.304Z,1095
2017-09-27T12:13:02.972Z,1125
2017-09-27T12:14:03.304Z,1210
2017-09-27T12:15:02.345Z,1215
2017-09-27T12:16:02.664Z,1150
2017-09-27T12:17:02.666Z,1085
2017-09-27T12:18:02.668Z,1075
2017-09-27T12:19:03.000Z,1110
2017-09-27T12:20:03.351Z,1145
2017-09-27T12:21:03.002Z,1205
2017-09-27T12:22:03.030Z,1210
2017-09-27T12:23:02.381Z,1200
2017-09-27T12:24:02.697Z,1180
2017-09-27T12:25:02.695Z,1180
2017-09-27T12:26:02.386Z,1180
2017-09-27T12:27:03.029Z,1145
2017-09-27T12:28:03.353Z,1130
2017-09-27T12:29:03.357Z,455
2017-09-27T12:30:03.033Z,475
2017-09-27T12:31:02.400Z,725
2017-09-27T12:32:03.042Z,1165
2017-09-27T12:33:02.733Z,1195
2017-09-27T12:34:03.060Z,1195
2017-09-27T12:35:03.054Z,1190
2017-09-27T12:36:02.424Z,1190
2017-09-27T12:37:03.084Z,1200
2017-09-27T12:38:02.756Z,1115
2017-09-27T12:39:02.754Z,1055
2017-09-27T12:40:03.404Z,1190
2017-09-27T12:41:02.441Z,1195
2017-09-27T12:42:03.090Z,1165
2017-09-27T12:43:03.088Z,1140
2017-09-27T12:44:02.452Z,1130
2017-09-27T12:45:03.109Z,1100
2017-09-27T12:46:02.787Z,1130
2017-09-27T12:47:03.112Z,1145
2017-09-27T12:48:02.793Z,1155
2017-09-27T12:49:02.794Z,1130
2017-09-27T12:50:02.809Z,895
2017-09-27T12:51:03.126Z,1090
2017-09-27T12:52:03.133Z,1160
2017-09-27T12:53:02.819Z,1185
2017-09-27T12:54:03.144Z,1195
2017-09-27T12:55:02.505Z,1005
2017-09-27T12:56:02.506Z,1165
2017-09-27T12:57:03.153Z,1150
2017-09-27T12:58:02.847Z,1145
2017-09-27T12:59:02.530Z,1130
2017-09-27T13:00:02.851Z,1005
2017-09-27T13:01:02.865Z,1000
2017-09-27T13:02:03.184Z,765
2017-09-27T13:03:02.879Z,460
2017-09-27T13:04:02.876Z,350
2017-09-27T13:05:02.877Z,325
2017-09-27T13:06:03.199Z,350
2017-09-27T13:07:03.209Z,440
2017-09-27T13:08:02.887Z,880
2017-09-27T13:09:02.895Z,835
2017-09-27T13:10:02.894Z,995
2017-09-27T13:11:03.540Z,325
2017-09-27T13:12:03.220Z,290
2017-09-27T13:13:03.550Z,265
2017-09-27T13:14:02.588Z,260
2017-09-27T13:15:03.240Z,295
2017-09-27T13:16:02.911Z,335
2017-09-27T13:17:02.594Z,345
2017-09-27T13:18:03.242Z,355
2017-09-27T13:19:03.240Z,390
2017-09-27T13:20:02.916Z,390
2017-09-27T13:21:03.572Z,390
2017-09-27T13:22:02.930Z,390
2017-09-27T13:23:03.259Z,390
2017-09-27T13:24:03.250Z,655
2017-09-27T13:25:02.608Z,475
2017-09-27T13:26:03.253Z,400
2017-09-27T13:27:02.610Z,395
2017-09-27T13:28:02.610Z,400
2017-09-27T13:29:03.582Z,435
2017-09-27T13:30:02.936Z,410
2017-09-27T13:31:02.936Z,385
2017-09-27T13:32:03.630Z,485
2017-09-27T13:33:03.260Z,340
2017-09-27T13:34:02.292Z,410
2017-09-27T13:35:03.249Z,920
2017-09-27T13:36:02.601Z,855
2017-09-27T13:37:02.928Z,1050
2017-09-27T13:38:02.931Z,1000
2017-09-27T13:39:02.929Z,925
2017-09-27T13:40:02.610Z,910
2017-09-27T13:41:02.926Z,940
2017-09-27T13:42:02.923Z,975
2017-09-27T13:43:02.919Z,985
2017-09-27T13:44:03.250Z,955
2017-09-27T13:45:02.938Z,910
2017-09-27T13:46:03.263Z,890
2017-09-27T13:47:03.262Z,870
2017-09-27T13:48:02.616Z,890
2017-09-27T13:49:03.579Z,895
2017-09-27T13:50:02.611Z,890
2017-09-27T13:51:03.263Z,880
2017-09-27T13:52:03.260Z,880
2017-09-27T13:53:03.260Z,895
2017-09-27T13:54:02.617Z,910
2017-09-27T13:55:03.271Z,895
2017-09-27T13:56:02.634Z,915
2017-09-27T13:57:02.958Z,920
2017-09-27T13:58:02.643Z,895
2017-09-27T13:59:03.277Z,845
2017-09-27T14:00:03.277Z,830
2017-09-27T14:01:03.166Z,815
2017-09-27T14:02:02.959Z,810
2017-09-27T14:03:03.296Z,795
2017-09-27T14:04:03.617Z,370
2017-09-27T14:05:02.981Z,355
2017-09-27T14:06:02.651Z,415
2017-09-27T14:07:02.977Z,645
2017-09-27T14:08:02.670Z,745
2017-09-27T14:09:02.384Z,760